Time;durP1;ratioP1;P1;durP2;ratioP2;P2;SDS_P1;SDS_P2;PMS_P1;PMS_P2;Temp;Humidity;BMP_temperature;BMP_pressure;BME280_temperature;BME280_humidity;BME280_pressure;Samples;Min_cycle;Max_cycle;Signal;HPM_P1;HPM_P2
2023/01/21 00:00:37;;;;;;;14.57;6.60;;;;;;;;;;4964547;28;20105;-74
2023/01/21 00:03:02;;;;;;;22.45;9.10;;;;;;;;;;4947981;28;20054;-74
2023/01/21 00:05:28;;;;;;;32.97;10.63;;;;;;;;;;4963713;28;20043;-74
2023/01/21 00:07:53;;;;;;;27.17;11.45;;;;;;;;;;4944997;28;20034;-74
2023/01/21 00:10:18;;;;;;;11.20;6.57;;;;;;;;;;4952727;28;20101;-74
2023/01/21 00:12:44;;;;;;;18.50;7.60;;;;;;;;;;4948483;28;20086;-74
2023/01/21 00:15:09;;;;;;;21.90;8.63;;;;;;;;;;4963086;28;20125;-74
2023/01/21 00:17:35;;;;;;;23.40;9.05;;;;;;;;;;4943206;28;20047;-74
2023/01/21 00:20:04;;;;;;;13.43;6.00;;;;;;;;;;4967630;28;20022;-74
2023/01/21 00:22:30;;;;;;;17.67;7.05;;;;;;;;;;4968036;28;20066;-74
2023/01/21 00:24:55;;;;;;;17.38;7.72;;;;;;;;;;4968957;28;20073;-74
2023/01/21 00:27:21;;;;;;;26.33;9.98;;;;;;;;;;4969613;28;20038;-74
2023/01/21 00:29:46;;;;;;;23.77;7.97;;;;;;;;;;4937189;28;20054;-74
2023/01/21 00:32:11;;;;;;;17.45;7.00;;;;;;;;;;4969304;28;20023;-74
2023/01/21 00:34:37;;;;;;;17.13;5.95;;;;;;;;;;4969534;28;20391;-74
2023/01/21 00:37:02;;;;;;;19.35;8.60;;;;;;;;;;4968454;28;20043;-74
2023/01/21 00:39:27;;;;;;;25.75;11.38;;;;;;;;;;4968184;28;20109;-74
2023/01/21 00:41:53;;;;;;;28.73;13.10;;;;;;;;;;4968769;28;20389;-74
2023/01/21 00:44:18;;;;;;;24.38;9.38;;;;;;;;;;4968263;28;20095;-74
2023/01/21 00:46:44;;;;;;;9.00;5.95;;;;;;;;;;4967640;28;20050;-74
2023/01/21 00:49:09;;;;;;;19.30;7.70;;;;;;;;;;4968426;28;20031;-74
2023/01/21 00:51:35;;;;;;;18.13;7.13;;;;;;;;;;4968682;28;20113;-74
2023/01/21 00:54:00;;;;;;;21.90;8.60;;;;;;;;;;4969009;28;20138;-74
2023/01/21 00:56:25;;;;;;;29.50;11.43;;;;;;;;;;4967294;28;20618;-74
2023/01/21 00:58:51;;;;;;;25.65;9.20;;;;;;;;;;4957264;28;20023;-74
2023/01/21 01:01:20;;;;;;;21.95;8.45;;;;;;;;;;4983399;28;20066;-74
2023/01/21 01:03:47;;;;;;;16.58;7.93;;;;;;;;;;4966185;28;20073;-74
2023/01/21 01:06:18;;;;;;;30.75;10.20;;;;;;;;;;4964064;28;20059;-74
2023/01/21 01:08:45;;;;;;;21.88;8.73;;;;;;;;;;4950538;28;20047;-74
2023/01/21 01:11:11;;;;;;;20.58;8.80;;;;;;;;;;4968007;28;20550;-74
2023/01/21 01:13:37;;;;;;;19.70;8.80;;;;;;;;;;4968985;28;20051;-74
2023/01/21 01:16:04;;;;;;;17.80;8.30;;;;;;;;;;4982608;28;20069;-74
2023/01/21 01:18:32;;;;;;;21.92;9.27;;;;;;;;;;4955617;28;20415;-74
2023/01/21 01:20:58;;;;;;;24.80;9.90;;;;;;;;;;4965418;28;20110;-74
2023/01/21 01:23:24;;;;;;;19.33;8.15;;;;;;;;;;4946299;28;20141;-75
2023/01/21 01:26:06;;;;;;;23.90;9.07;;;;;;;;;;4967817;28;20023;-74
2023/01/21 01:28:33;;;;;;;16.58;7.30;;;;;;;;;;4953152;28;20050;-74
2023/01/21 01:30:59;;;;;;;25.63;10.35;;;;;;;;;;4944882;28;20031;-74
2023/01/21 01:33:25;;;;;;;29.17;11.75;;;;;;;;;;4967989;28;20586;-74
2023/01/21 01:35:51;;;;;;;22.25;10.23;;;;;;;;;;4968061;28;20034;-74
2023/01/21 01:38:19;;;;;;;24.27;9.77;;;;;;;;;;4961338;28;20031;-74
2023/01/21 01:40:45;;;;;;;29.17;11.85;;;;;;;;;;4940135;28;20029;-74
2023/01/21 01:43:22;;;;;;;19.92;8.60;;;;;;;;;;4949903;28;20038;-74
2023/01/21 01:45:48;;;;;;;26.27;10.60;;;;;;;;;;4964923;28;20130;-74
2023/01/21 01:48:22;;;;;;;24.73;10.07;;;;;;;;;;4969235;28;20177;-74
2023/01/21 01:50:48;;;;;;;31.25;11.63;;;;;;;;;;4961149;28;20035;-74
2023/01/21 01:53:17;;;;;;;25.52;11.13;;;;;;;;;;4950447;28;20029;-74
2023/01/21 01:55:42;;;;;;;32.20;13.23;;;;;;;;;;4964802;28;20101;-74
2023/01/21 01:58:12;;;;;;;30.38;13.50;;;;;;;;;;4960727;28;20121;-74
2023/01/21 02:00:37;;;;;;;28.30;10.95;;;;;;;;;;4960550;28;20455;-74
2023/01/21 02:05:47;;;;;;;31.25;12.13;;;;;;;;;;4959369;28;20534;-74
2023/01/21 02:08:13;;;;;;;34.63;12.60;;;;;;;;;;4957043;28;20019;-74
2023/01/21 02:10:39;;;;;;;26.27;10.50;;;;;;;;;;4963235;28;20030;-74
2023/01/21 02:13:04;;;;;;;28.38;11.27;;;;;;;;;;4982370;28;20058;-74
2023/01/21 02:16:02;;;;;;;27.85;11.32;;;;;;;;;;4964106;28;20038;-75
2023/01/21 02:19:01;;;;;;;28.50;11.07;;;;;;;;;;4941884;28;20042;-74
2023/01/21 02:21:46;;;;;;;23.05;10.40;;;;;;;;;;4957494;28;20027;-74
2023/01/21 02:24:34;;;;;;;23.73;10.98;;;;;;;;;;4949302;28;20566;-74
2023/01/21 02:27:21;;;;;;;25.13;10.93;;;;;;;;;;4965146;28;20118;-74
2023/01/21 02:30:14;;;;;;;24.55;10.60;;;;;;;;;;4955887;28;20039;-74
2023/01/21 02:33:16;;;;;;;31.60;13.43;;;;;;;;;;4965888;28;20644;-74
2023/01/21 02:35:53;;;;;;;29.63;13.02;;;;;;;;;;4963358;28;20030;-75
2023/01/21 02:38:34;;;;;;;27.08;13.15;;;;;;;;;;4965530;28;20106;-74
2023/01/21 02:41:04;;;;;;;25.48;11.63;;;;;;;;;;4954982;28;20017;-74
2023/01/21 02:43:50;;;;;;;30.98;11.48;;;;;;;;;;4953148;28;20042;-74
2023/01/21 02:46:38;;;;;;;36.38;15.10;;;;;;;;;;4946486;28;20054;-74
2023/01/21 02:49:14;;;;;;;31.40;12.40;;;;;;;;;;4960983;28;20081;-74
2023/01/21 02:51:45;;;;;;;49.88;19.17;;;;;;;;;;4966261;28;20130;-74
2023/01/21 02:54:34;;;;;;;28.35;12.20;;;;;;;;;;4954618;28;20034;-74
2023/01/21 02:56:59;;;;;;;29.60;12.40;;;;;;;;;;4952469;28;20027;-74
2023/01/21 02:59:25;;;;;;;42.08;14.48;;;;;;;;;;4978898;28;20042;-74
2023/01/21 03:02:15;;;;;;;35.22;13.00;;;;;;;;;;4957855;28;20509;-74
2023/01/21 03:05:02;;;;;;;31.45;12.88;;;;;;;;;;4966699;28;20039;-74
2023/01/21 03:07:33;;;;;;;33.72;12.57;;;;;;;;;;4949513;28;20038;-74
2023/01/21 03:10:05;;;;;;;33.92;14.02;;;;;;;;;;4941713;28;20500;-74
2023/01/21 03:12:39;;;;;;;33.85;13.48;;;;;;;;;;4963557;28;20415;-74
2023/01/21 03:18:05;;;;;;;39.53;15.43;;;;;;;;;;4955380;28;20415;-74
2023/01/21 03:20:39;;;;;;;43.67;15.98;;;;;;;;;;4961248;28;20513;-74
2023/01/21 03:23:11;;;;;;;46.75;19.88;;;;;;;;;;4966801;28;20459;-74
2023/01/21 03:25:39;;;;;;;33.65;12.82;;;;;;;;;;4948610;28;20897;-74
2023/01/21 03:28:11;;;;;;;29.88;11.68;;;;;;;;;;4965963;28;20069;-74
2023/01/21 03:30:41;;;;;;;30.95;12.05;;;;;;;;;;4965948;28;20037;-74
2023/01/21 03:33:08;;;;;;;32.40;14.13;;;;;;;;;;4965840;28;20034;-74
2023/01/21 03:35:39;;;;;;;35.13;13.27;;;;;;;;;;4943124;28;20118;-74
2023/01/21 03:38:13;;;;;;;23.23;10.30;;;;;;;;;;4962070;28;20107;-74
2023/01/21 03:40:43;;;;;;;30.70;12.43;;;;;;;;;;4966353;28;20462;-74
2023/01/21 03:43:09;;;;;;;31.83;11.57;;;;;;;;;;4958791;28;20038;-74
2023/01/21 03:45:53;;;;;;;33.95;13.75;;;;;;;;;;4946351;28;20048;-74
2023/01/21 03:48:25;;;;;;;23.08;10.13;;;;;;;;;;4946558;28;20031;-74
2023/01/21 03:51:02;;;;;;;46.22;16.65;;;;;;;;;;4945829;28;20055;-74
2023/01/21 03:53:28;;;;;;;37.08;14.73;;;;;;;;;;4933975;28;20130;-74
2023/01/21 03:55:53;;;;;;;27.58;11.70;;;;;;;;;;4932981;28;20130;-74
2023/01/21 03:58:18;;;;;;;28.80;11.90;;;;;;;;;;4931473;28;20034;-74
2023/01/21 04:00:45;;;;;;;34.78;14.00;;;;;;;;;;4949516;28;20035;-74
2023/01/21 04:03:11;;;;;;;44.65;16.45;;;;;;;;;;4950328;28;20035;-74
2023/01/21 04:05:36;;;;;;;50.22;17.38;;;;;;;;;;4950395;28;20031;-74
2023/01/21 04:08:01;;;;;;;40.83;14.60;;;;;;;;;;4950433;28;20059;-74
2023/01/21 04:10:27;;;;;;;45.55;17.38;;;;;;;;;;4931522;28;20043;-74
2023/01/21 04:12:52;;;;;;;28.33;12.60;;;;;;;;;;4950609;28;20393;-74
2023/01/21 04:15:17;;;;;;;46.83;16.38;;;;;;;;;;4949481;28;20035;-74
2023/01/21 04:17:42;;;;;;;42.58;16.85;;;;;;;;;;4946285;28;20044;-74
2023/01/21 04:20:08;;;;;;;23.60;10.13;;;;;;;;;;4938373;28;20185;-74
2023/01/21 04:22:34;;;;;;;42.17;14.95;;;;;;;;;;4948095;28;20054;-74
2023/01/21 04:24:59;;;;;;;30.65;13.30;;;;;;;;;;4948305;28;20584;-74
2023/01/21 04:27:24;;;;;;;40.58;12.88;;;;;;;;;;4944332;28;20725;-74
2023/01/21 04:29:50;;;;;;;38.55;12.75;;;;;;;;;;4945099;28;20090;-74
2023/01/21 04:32:15;;;;;;;30.90;11.93;;;;;;;;;;4949762;28;20031;-74
2023/01/21 04:34:40;;;;;;;44.78;15.13;;;;;;;;;;4932209;29;20046;-74
2023/01/21 04:37:06;;;;;;;30.75;12.43;;;;;;;;;;4938594;29;20060;-74
2023/01/21 04:39:31;;;;;;;44.42;14.75;;;;;;;;;;4947454;28;20050;-74
2023/01/21 04:41:57;;;;;;;46.00;15.95;;;;;;;;;;4936088;29;20085;-74
2023/01/21 04:44:22;;;;;;;29.70;13.50;;;;;;;;;;4935612;28;20023;-74
2023/01/21 04:46:47;;;;;;;40.05;13.73;;;;;;;;;;4932838;29;20050;-74
2023/01/21 04:49:12;;;;;;;39.35;12.75;;;;;;;;;;4949206;28;20035;-74
2023/01/21 04:51:38;;;;;;;44.15;15.02;;;;;;;;;;4930749;29;20062;-74
2023/01/21 04:54:03;;;;;;;26.83;12.65;;;;;;;;;;4948593;28;20089;-74
2023/01/21 04:56:28;;;;;;;23.88;10.68;;;;;;;;;;4935496;28;20035;-74
2023/01/21 04:58:54;;;;;;;35.13;12.48;;;;;;;;;;4938543;28;20019;-74
2023/01/21 05:01:19;;;;;;;36.92;13.60;;;;;;;;;;4931485;28;20035;-74
2023/01/21 05:03:44;;;;;;;31.10;11.25;;;;;;;;;;4932018;29;20038;-74
2023/01/21 05:06:10;;;;;;;36.55;11.50;;;;;;;;;;4948425;28;20031;-74
2023/01/21 05:08:35;;;;;;;32.05;13.68;;;;;;;;;;4949400;28;20468;-74
2023/01/21 05:11:00;;;;;;;31.40;11.73;;;;;;;;;;4938712;28;20038;-74
2023/01/21 05:13:26;;;;;;;45.97;15.18;;;;;;;;;;4925089;29;20066;-74
2023/01/21 05:15:51;;;;;;;33.45;12.93;;;;;;;;;;4949433;28;20544;-74
2023/01/21 05:18:17;;;;;;;30.33;11.98;;;;;;;;;;4945915;28;20032;-74
2023/01/21 05:20:42;;;;;;;39.97;13.05;;;;;;;;;;4933760;29;20043;-74
2023/01/21 05:23:07;;;;;;;34.85;12.55;;;;;;;;;;4949341;28;20023;-74
2023/01/21 05:25:33;;;;;;;42.53;13.25;;;;;;;;;;4932163;29;20179;-75
2023/01/21 05:27:58;;;;;;;31.48;13.32;;;;;;;;;;4948848;28;20043;-74
2023/01/21 05:30:23;;;;;;;36.67;13.25;;;;;;;;;;4931222;29;20046;-74
2023/01/21 05:32:53;;;;;;;35.28;12.15;;;;;;;;;;4928874;28;20027;-74
2023/01/21 05:35:20;;;;;;;32.20;11.07;;;;;;;;;;4939073;28;20106;-74
2023/01/21 05:37:46;;;;;;;41.00;15.25;;;;;;;;;;4949371;28;20393;-75
2023/01/21 05:40:16;;;;;;;30.52;13.00;;;;;;;;;;4947332;28;20034;-74
2023/01/21 05:42:42;;;;;;;44.05;14.32;;;;;;;;;;4943525;28;20035;-74
2023/01/21 05:45:07;;;;;;;44.58;14.55;;;;;;;;;;4952504;28;20122;-75
2023/01/21 05:47:33;;;;;;;37.03;13.43;;;;;;;;;;4966740;28;20118;-74
2023/01/21 05:49:58;;;;;;;27.48;12.98;;;;;;;;;;4951046;28;20023;-75
2023/01/21 05:52:23;;;;;;;52.67;15.18;;;;;;;;;;4983872;28;20064;-74
2023/01/21 05:54:49;;;;;;;32.03;12.65;;;;;;;;;;4950970;28;20118;-75
2023/01/21 05:57:14;;;;;;;27.40;11.63;;;;;;;;;;4965746;28;20027;-75
2023/01/21 05:59:39;;;;;;;38.85;13.23;;;;;;;;;;4945965;28;20081;-75
2023/01/21 06:02:04;;;;;;;24.38;11.05;;;;;;;;;;4967771;28;20407;-75
2023/01/21 06:04:30;;;;;;;46.20;15.95;;;;;;;;;;4968206;28;20060;-75
2023/01/21 06:06:56;;;;;;;43.05;13.77;;;;;;;;;;4963100;28;20873;-75
2023/01/21 06:09:21;;;;;;;29.02;11.48;;;;;;;;;;4954293;28;20038;-75
2023/01/21 06:11:47;;;;;;;36.67;13.15;;;;;;;;;;4966978;28;20038;-75
2023/01/21 06:14:12;;;;;;;47.75;14.27;;;;;;;;;;4967527;28;20105;-75
2023/01/21 06:16:38;;;;;;;50.90;17.08;;;;;;;;;;4967249;28;20019;-75
2023/01/21 06:19:03;;;;;;;34.78;12.85;;;;;;;;;;4967554;28;20114;-74
2023/01/21 06:21:28;;;;;;;33.00;13.07;;;;;;;;;;4966664;28;20038;-75
2023/01/21 06:23:54;;;;;;;20.95;8.98;;;;;;;;;;4966418;28;20504;-75
2023/01/21 06:26:19;;;;;;;27.33;10.48;;;;;;;;;;4949599;28;20034;-75
2023/01/21 06:28:44;;;;;;;34.40;14.18;;;;;;;;;;4949228;28;20081;-75
2023/01/21 06:31:09;;;;;;;42.38;14.45;;;;;;;;;;4967115;28;20047;-75
2023/01/21 06:33:35;;;;;;;40.38;16.67;;;;;;;;;;4966908;28;20059;-75
2023/01/21 06:36:00;;;;;;;30.48;11.52;;;;;;;;;;4949438;28;20478;-75
2023/01/21 06:38:25;;;;;;;47.35;15.50;;;;;;;;;;4966779;28;20046;-74
2023/01/21 06:40:51;;;;;;;42.08;15.45;;;;;;;;;;4967415;28;20027;-75
2023/01/21 06:43:16;;;;;;;39.38;17.70;;;;;;;;;;4966240;28;20035;-74
2023/01/21 06:45:41;;;;;;;47.42;15.55;;;;;;;;;;4966382;28;20133;-75
2023/01/21 06:48:07;;;;;;;35.35;13.68;;;;;;;;;;4966257;28;20419;-75
2023/01/21 06:50:32;;;;;;;41.40;15.20;;;;;;;;;;4949295;28;20047;-75
2023/01/21 06:52:57;;;;;;;41.47;16.55;;;;;;;;;;4969423;28;20030;-74
2023/01/21 06:55:22;;;;;;;41.63;16.15;;;;;;;;;;4981737;28;20069;-74
2023/01/21 06:57:48;;;;;;;48.47;18.17;;;;;;;;;;4960820;28;20094;-75
2023/01/21 07:00:13;;;;;;;43.17;15.57;;;;;;;;;;4964614;28;20034;-75
2023/01/21 07:02:39;;;;;;;37.42;12.85;;;;;;;;;;4944296;28;20423;-75
2023/01/21 07:05:05;;;;;;;33.28;13.52;;;;;;;;;;4967036;28;20027;-74
2023/01/21 07:07:30;;;;;;;26.20;10.75;;;;;;;;;;4954929;28;20113;-75
2023/01/21 07:09:55;;;;;;;34.03;13.57;;;;;;;;;;4949866;28;20046;-74
2023/01/21 07:12:20;;;;;;;36.17;14.95;;;;;;;;;;4963246;28;20034;-74
2023/01/21 07:14:46;;;;;;;46.45;16.85;;;;;;;;;;4966462;28;20046;-74
2023/01/21 07:17:11;;;;;;;44.42;15.13;;;;;;;;;;4960168;28;20031;-75
2023/01/21 07:19:37;;;;;;;42.45;14.88;;;;;;;;;;4954755;28;20039;-75
2023/01/21 07:22:02;;;;;;;35.33;14.38;;;;;;;;;;4948895;28;20111;-74
2023/01/21 07:24:27;;;;;;;29.27;13.02;;;;;;;;;;4950378;28;20085;-75
2023/01/21 07:26:52;;;;;;;34.17;15.35;;;;;;;;;;4961010;28;20508;-75
2023/01/21 07:29:19;;;;;;;53.60;18.02;;;;;;;;;;4965959;28;20034;-75
2023/01/21 07:31:44;;;;;;;35.53;13.02;;;;;;;;;;4966356;28;20098;-75
2023/01/21 07:34:09;;;;;;;39.22;18.25;;;;;;;;;;4965904;28;20138;-75
2023/01/21 07:36:35;;;;;;;40.75;16.40;;;;;;;;;;4965201;28;20677;-75
2023/01/21 07:39:00;;;;;;;52.20;17.55;;;;;;;;;;4960151;28;20130;-75
2023/01/21 07:41:25;;;;;;;61.05;21.02;;;;;;;;;;4969888;28;20138;-75
2023/01/21 07:43:51;;;;;;;50.28;18.50;;;;;;;;;;4957180;28;20439;-75
2023/01/21 07:46:21;;;;;;;40.17;14.85;;;;;;;;;;4958581;28;20050;-75
2023/01/21 07:48:47;;;;;;;45.25;16.55;;;;;;;;;;4964115;28;20494;-75
2023/01/21 07:51:13;;;;;;;37.00;14.10;;;;;;;;;;4929403;28;20766;-75
2023/01/21 07:53:38;;;;;;;38.80;14.30;;;;;;;;;;4952054;28;20114;-75
2023/01/21 07:56:05;;;;;;;44.50;16.92;;;;;;;;;;4953448;28;20110;-75
2023/01/21 07:58:30;;;;;;;37.00;15.07;;;;;;;;;;4957707;28;20511;-75
2023/01/21 08:00:55;;;;;;;31.80;13.38;;;;;;;;;;4960990;28;20027;-75
2023/01/21 08:03:22;;;;;;;39.88;15.30;;;;;;;;;;4949745;28;20043;-75
2023/01/21 08:05:47;;;;;;;48.42;16.83;;;;;;;;;;4963326;28;20042;-75
2023/01/21 08:08:13;;;;;;;45.05;15.55;;;;;;;;;;4955622;28;20040;-75
2023/01/21 08:10:38;;;;;;;26.55;10.07;;;;;;;;;;4949966;28;20027;-75
2023/01/21 08:13:06;;;;;;;41.63;14.27;;;;;;;;;;4954579;28;20431;-75
2023/01/21 08:15:32;;;;;;;34.55;13.80;;;;;;;;;;4940952;28;20518;-75
2023/01/21 08:17:57;;;;;;;44.75;16.70;;;;;;;;;;4944969;28;20034;-75
2023/01/21 08:20:22;;;;;;;48.90;16.05;;;;;;;;;;4963942;28;20111;-75
2023/01/21 08:22:48;;;;;;;51.25;17.58;;;;;;;;;;4966464;28;20026;-75
2023/01/21 08:25:13;;;;;;;35.55;15.30;;;;;;;;;;4963113;28;20039;-75
2023/01/21 08:27:39;;;;;;;48.30;17.17;;;;;;;;;;4971732;28;20043;-75
2023/01/21 08:30:05;;;;;;;39.55;15.20;;;;;;;;;;4941644;28;20054;-75
2023/01/21 08:32:30;;;;;;;65.88;20.60;;;;;;;;;;4962724;28;20471;-76
2023/01/21 08:34:55;;;;;;;52.75;16.58;;;;;;;;;;4962776;28;20034;-75
2023/01/21 08:37:21;;;;;;;43.90;17.08;;;;;;;;;;4948390;28;20101;-75
2023/01/21 08:39:46;;;;;;;50.42;19.10;;;;;;;;;;4960018;28;20038;-75
2023/01/21 08:42:11;;;;;;;53.92;18.70;;;;;;;;;;4949668;28;20031;-75
2023/01/21 08:44:37;;;;;;;50.78;18.48;;;;;;;;;;4944503;28;20058;-75
2023/01/21 08:47:02;;;;;;;38.78;14.40;;;;;;;;;;4965606;28;20119;-75
2023/01/21 08:49:27;;;;;;;16.75;8.73;;;;;;;;;;4942044;28;20456;-75
2023/01/21 08:51:53;;;;;;;42.70;16.48;;;;;;;;;;4963697;28;20121;-76
2023/01/21 08:54:18;;;;;;;40.15;17.13;;;;;;;;;;4964117;28;20039;-75
2023/01/21 08:56:43;;;;;;;41.65;14.30;;;;;;;;;;4948011;28;20049;-75
2023/01/21 08:59:09;;;;;;;41.70;16.20;;;;;;;;;;4945739;28;20617;-75
2023/01/21 09:01:39;;;;;;;25.60;9.23;;;;;;;;;;4947617;28;20034;-75
2023/01/21 09:04:05;;;;;;;37.50;13.32;;;;;;;;;;4962896;28;20159;-76
2023/01/21 09:06:31;;;;;;;41.45;16.90;;;;;;;;;;4960188;28;21028;-75
2023/01/21 09:08:57;;;;;;;27.48;9.60;;;;;;;;;;4959721;28;20035;-76
2023/01/21 09:11:23;;;;;;;51.22;17.52;;;;;;;;;;4960079;28;20720;-75
2023/01/21 09:13:48;;;;;;;32.63;14.10;;;;;;;;;;4957692;28;20030;-75
2023/01/21 09:16:17;;;;;;;39.22;14.07;;;;;;;;;;4972779;28;20519;-75
2023/01/21 09:18:43;;;;;;;38.33;12.48;;;;;;;;;;4963731;28;21035;-76
2023/01/21 09:21:09;;;;;;;32.05;11.43;;;;;;;;;;4942223;28;20039;-76
2023/01/21 09:23:36;;;;;;;37.38;14.43;;;;;;;;;;4963011;28;20047;-75
2023/01/21 09:26:16;;;;;;;46.53;15.70;;;;;;;;;;4946717;28;20030;-76
2023/01/21 09:28:43;;;;;;;45.42;14.88;;;;;;;;;;4960067;28;20046;-76
2023/01/21 09:31:11;;;;;;;44.33;16.15;;;;;;;;;;4965207;28;20119;-76
2023/01/21 09:33:39;;;;;;;36.17;14.23;;;;;;;;;;4960244;28;20038;-76
2023/01/21 09:36:06;;;;;;;41.10;15.57;;;;;;;;;;4960472;28;20130;-76
2023/01/21 09:38:32;;;;;;;42.35;15.48;;;;;;;;;;4950765;28;20031;-75
2023/01/21 09:41:10;;;;;;;36.00;14.30;;;;;;;;;;4968675;28;20443;-75
2023/01/21 09:43:42;;;;;;;26.50;11.05;;;;;;;;;;4961207;28;20035;-75
2023/01/21 09:46:34;;;;;;;33.13;12.68;;;;;;;;;;4960073;28;20050;-75
2023/01/21 09:49:02;;;;;;;43.08;18.40;;;;;;;;;;4946510;28;20043;-74
2023/01/21 09:51:39;;;;;;;63.50;22.38;;;;;;;;;;4963228;28;20051;-74
2023/01/21 09:54:14;;;;;;;56.38;23.55;;;;;;;;;;4940411;28;20042;-74
2023/01/21 09:57:10;;;;;;;46.47;16.70;;;;;;;;;;4935756;28;20067;-74
2023/01/21 09:59:57;;;;;;;46.55;16.55;;;;;;;;;;4958050;28;20047;-74
2023/01/21 10:02:47;;;;;;;46.47;18.58;;;;;;;;;;4957627;28;20093;-74
2023/01/21 10:05:34;;;;;;;39.13;16.17;;;;;;;;;;4960503;28;20511;-74
2023/01/21 10:08:36;;;;;;;41.35;15.15;;;;;;;;;;4961693;28;20027;-74
2023/01/21 10:11:10;;;;;;;54.13;16.95;;;;;;;;;;4964410;28;20139;-75
2023/01/21 10:13:43;;;;;;;45.03;15.88;;;;;;;;;;4948056;28;20089;-75
2023/01/21 10:16:43;;;;;;;43.75;16.08;;;;;;;;;;4953192;28;20047;-74
2023/01/21 10:19:15;;;;;;;32.67;13.80;;;;;;;;;;4920639;28;20157;-75
2023/01/21 10:21:52;;;;;;;43.50;16.83;;;;;;;;;;4965663;28;20677;-74
2023/01/21 10:24:23;;;;;;;28.33;12.50;;;;;;;;;;4963405;28;20063;-74
2023/01/21 10:26:52;;;;;;;31.02;13.15;;;;;;;;;;4966535;28;20061;-74
2023/01/21 10:29:20;;;;;;;44.65;14.73;;;;;;;;;;4967459;28;20073;-75
2023/01/21 10:32:21;;;;;;;41.53;14.20;;;;;;;;;;4967824;28;20053;-74
2023/01/21 10:34:51;;;;;;;40.15;15.00;;;;;;;;;;4946950;28;20054;-74
2023/01/21 10:37:23;;;;;;;45.22;16.10;;;;;;;;;;4958456;28;20089;-74
2023/01/21 10:40:01;;;;;;;44.70;16.98;;;;;;;;;;4965686;28;20027;-74
2023/01/21 10:42:40;;;;;;;24.60;10.32;;;;;;;;;;4965659;28;20070;-74
2023/01/21 10:45:19;;;;;;;41.05;14.73;;;;;;;;;;4967225;28;20809;-74
2023/01/21 10:47:47;;;;;;;38.70;14.25;;;;;;;;;;4945125;28;20039;-74
2023/01/21 10:50:39;;;;;;;41.63;15.95;;;;;;;;;;4967424;28;20078;-74
2023/01/21 10:53:42;;;;;;;47.90;16.67;;;;;;;;;;4969751;28;20804;-74
2023/01/21 10:56:32;;;;;;;33.37;13.33;;;;;;;;;;4960501;28;20043;-74
2023/01/21 10:59:04;;;;;;;44.25;14.80;;;;;;;;;;4966240;28;20296;-75
2023/01/21 11:01:37;;;;;;;38.65;15.63;;;;;;;;;;4944737;28;20050;-74
2023/01/21 11:04:10;;;;;;;39.78;14.55;;;;;;;;;;4949506;28;20594;-74
2023/01/21 11:06:37;;;;;;;53.22;18.38;;;;;;;;;;4942716;28;20511;-74
2023/01/21 11:09:05;;;;;;;63.42;23.40;;;;;;;;;;4967006;28;20529;-74
2023/01/21 11:11:34;;;;;;;43.97;17.60;;;;;;;;;;4981793;28;20094;-74
2023/01/21 11:14:00;;;;;;;54.42;20.10;;;;;;;;;;4964122;28;20056;-74
2023/01/21 11:16:42;;;;;;;64.57;22.42;;;;;;;;;;4959434;28;20065;-74
2023/01/21 11:19:12;;;;;;;57.45;19.63;;;;;;;;;;4955328;28;20130;-74
2023/01/21 11:21:38;;;;;;;50.05;17.98;;;;;;;;;;4966233;28;20415;-74
2023/01/21 11:24:20;;;;;;;39.17;16.70;;;;;;;;;;4961294;28;20054;-74
2023/01/21 11:26:52;;;;;;;42.83;16.30;;;;;;;;;;4949399;28;20162;-74
2023/01/21 11:29:19;;;;;;;42.67;16.63;;;;;;;;;;4966457;28;20495;-75
2023/01/21 11:31:49;;;;;;;37.45;14.10;;;;;;;;;;4949102;28;20018;-74
2023/01/21 11:34:16;;;;;;;48.38;18.42;;;;;;;;;;4971394;28;20042;-74
2023/01/21 11:37:03;;;;;;;53.55;18.15;;;;;;;;;;4976479;28;20047;-74
2023/01/21 11:39:35;;;;;;;52.97;19.27;;;;;;;;;;4981504;28;20054;-74
2023/01/21 11:42:10;;;;;;;50.90;18.08;;;;;;;;;;4981484;28;20045;-74
2023/01/21 11:44:51;;;;;;;43.97;15.95;;;;;;;;;;4965591;28;20359;-74
2023/01/21 11:47:46;;;;;;;51.22;18.30;;;;;;;;;;4958228;28;20049;-75
2023/01/21 11:50:15;;;;;;;49.42;18.35;;;;;;;;;;4951357;28;20039;-75
2023/01/21 11:52:41;;;;;;;34.67;12.68;;;;;;;;;;4951628;28;20023;-76
2023/01/21 11:55:19;;;;;;;48.88;16.75;;;;;;;;;;4961771;28;20082;-76
2023/01/21 11:57:50;;;;;;;45.53;16.88;;;;;;;;;;4947535;28;20636;-75
2023/01/21 12:00:21;;;;;;;50.42;15.77;;;;;;;;;;4942868;28;20047;-74
2023/01/21 12:02:50;;;;;;;55.17;18.42;;;;;;;;;;4963002;28;20527;-75
2023/01/21 12:05:30;;;;;;;45.13;17.98;;;;;;;;;;4942305;28;20089;-74
2023/01/21 12:07:56;;;;;;;38.85;14.90;;;;;;;;;;4940253;28;20120;-74
2023/01/21 12:11:00;;;;;;;46.40;15.40;;;;;;;;;;4959289;28;20130;-74
2023/01/21 12:13:44;;;;;;;52.05;18.02;;;;;;;;;;4938304;28;20059;-74
2023/01/21 12:16:28;;;;;;;37.08;14.48;;;;;;;;;;4966880;28;20105;-74
2023/01/21 12:19:06;;;;;;;48.95;18.65;;;;;;;;;;4962571;28;20085;-74
2023/01/21 12:21:50;;;;;;;42.80;14.23;;;;;;;;;;4960841;28;20117;-74
2023/01/21 12:24:37;;;;;;;49.00;17.33;;;;;;;;;;4941605;28;20091;-74
2023/01/21 12:27:14;;;;;;;37.97;14.70;;;;;;;;;;4962482;28;20117;-74
2023/01/21 12:29:53;;;;;;;42.60;16.40;;;;;;;;;;4959936;28;20715;-72
2023/01/21 12:32:26;;;;;;;44.13;14.25;;;;;;;;;;4967005;28;20031;-72
2023/01/21 12:35:01;;;;;;;51.10;19.58;;;;;;;;;;4963017;28;20033;-72
2023/01/21 12:37:52;;;;;;;33.33;13.60;;;;;;;;;;4946635;28;20050;-72
2023/01/21 12:40:32;;;;;;;46.40;16.27;;;;;;;;;;4931333;28;20035;-72
2023/01/21 12:43:18;;;;;;;48.45;17.50;;;;;;;;;;4963933;28;20512;-72
2023/01/21 12:45:50;;;;;;;49.17;17.98;;;;;;;;;;4953827;28;20047;-72
2023/01/21 12:48:34;;;;;;;40.65;16.08;;;;;;;;;;4961779;28;20102;-72
2023/01/21 12:51:01;;;;;;;;;;;;;;;;;;4961263;28;20070;-72
2023/01/21 12:53:54;;;;;;;38.45;14.10;;;;;;;;;;4964416;28;20111;-72
2023/01/21 12:56:32;;;;;;;36.45;14.88;;;;;;;;;;4964791;28;20396;-72
2023/01/21 12:59:07;;;;;;;46.00;16.13;;;;;;;;;;4963039;28;20373;-72
2023/01/21 13:01:54;;;;;;;51.15;16.90;;;;;;;;;;4956883;28;20047;-73
2023/01/21 13:04:45;;;;;;;45.75;17.73;;;;;;;;;;4954184;28;20039;-72
2023/01/21 13:07:28;;;;;;;37.63;13.15;;;;;;;;;;4963506;28;20039;-72
2023/01/21 13:10:03;;;;;;;40.40;15.32;;;;;;;;;;4950455;28;20038;-73
2023/01/21 13:12:31;;;;;;;38.25;14.07;;;;;;;;;;4959642;28;20042;-72
2023/01/21 13:15:21;;;;;;;39.33;15.65;;;;;;;;;;4967665;28;20532;-73
2023/01/21 13:17:51;;;;;;;33.70;13.18;;;;;;;;;;4972996;28;20043;-72
2023/01/21 13:20:19;;;;;;;32.75;11.40;;;;;;;;;;4960667;28;20126;-73
2023/01/21 13:23:12;;;;;;;40.05;14.57;;;;;;;;;;4959957;28;20153;-73
2023/01/21 13:25:57;;;;;;;47.40;17.15;;;;;;;;;;4975195;28;20043;-73
2023/01/21 13:28:34;;;;;;;44.22;16.63;;;;;;;;;;4976898;28;20120;-73
2023/01/21 13:31:44;;;;;;;42.22;13.75;;;;;;;;;;4960806;28;20065;-73
2023/01/21 13:34:14;;;;;;;27.35;10.85;;;;;;;;;;4961829;28;20051;-73
2023/01/21 13:36:50;;;;;;;27.70;12.57;;;;;;;;;;4960201;28;20044;-73
2023/01/21 13:39:42;;;;;;;44.53;13.00;;;;;;;;;;4978553;28;20125;-72
2023/01/21 13:42:19;;;;;;;32.13;12.27;;;;;;;;;;4957627;28;20073;-73
2023/01/21 13:45:08;;;;;;;43.85;14.80;;;;;;;;;;4976282;28;20034;-73
2023/01/21 13:47:43;;;;;;;39.28;14.98;;;;;;;;;;4958665;28;20043;-74
2023/01/21 13:50:33;;;;;;;35.03;12.85;;;;;;;;;;4962237;28;20058;-74
2023/01/21 13:53:31;;;;;;;27.55;12.25;;;;;;;;;;4949379;28;20030;-74
2023/01/21 13:56:14;;;;;;;39.97;14.07;;;;;;;;;;4958666;28;20079;-74
2023/01/21 13:58:52;;;;;;;;;;;;;;;;;;4942408;28;20125;-74
2023/01/21 14:01:46;;;;;;;25.85;11.55;;;;;;;;;;4955686;28;19930;-72
2023/01/21 14:04:28;;;;;;;34.40;13.45;;;;;;;;;;4973545;28;20388;-74
2023/01/21 14:07:02;;;;;;;40.78;16.33;;;;;;;;;;4950330;28;20068;-74
2023/01/21 14:09:27;;;;;;;38.17;13.45;;;;;;;;;;4960425;28;20070;-74
2023/01/21 14:11:56;;;;;;;44.45;15.65;;;;;;;;;;4958610;28;20074;-74
2023/01/21 14:14:34;;;;;;;39.40;14.80;;;;;;;;;;4954273;28;20066;-75
2023/01/21 14:17:08;;;;;;;26.38;12.75;;;;;;;;;;4959874;28;20034;-73
2023/01/21 14:20:27;;;;;;;49.05;16.48;;;;;;;;;;4942029;28;20263;-73
2023/01/21 14:23:30;;;;;;;39.08;16.70;;;;;;;;;;4884755;28;20121;-73
2023/01/21 14:26:04;;;;;;;39.53;16.73;;;;;;;;;;4943258;28;20118;-73
2023/01/21 14:28:42;;;;;;;49.55;19.88;;;;;;;;;;4961628;28;20126;-73
2023/01/21 14:31:13;;;;;;;40.33;13.45;;;;;;;;;;4946491;28;20093;-73
2023/01/21 14:34:00;;;;;;;53.33;17.90;;;;;;;;;;4960102;28;20045;-73
2023/01/21 14:36:52;;;;;;;42.22;15.65;;;;;;;;;;4949135;28;20587;-73
2023/01/21 14:39:53;;;;;;;52.08;18.55;;;;;;;;;;4935611;28;20090;-73
2023/01/21 14:42:25;;;;;;;44.55;16.45;;;;;;;;;;4959397;28;20053;-73
2023/01/21 14:44:50;;;;;;;44.08;15.80;;;;;;;;;;4961226;28;20093;-73
2023/01/21 14:47:21;;;;;;;44.83;16.95;;;;;;;;;;4960746;28;20031;-73
2023/01/21 14:49:49;;;;;;;45.00;17.73;;;;;;;;;;4942841;28;20039;-73